Time;durP1;ratioP1;P1;durP2;ratioP2;P2;SDS_P1;SDS_P2;PMS_P1;PMS_P2;Temp;Humidity;BMP_temperature;BMP_pressure;BME280_temperature;BME280_humidity;BME280_pressure;Samples;Min_cycle;Max_cycle;Signal;HPM_P1;HPM_P2
2022/01/03 00:00:52;;;;;;;3.35;2.4;;;;;;;10.8;62.49512;95331.52;;;;
2022/01/03 00:01:52;;;;;;;3.35;2.4;;;;;;;10.8;62.49512;95331.52;;;;
2022/01/03 00:02:53;;;;;;;3.35;2.4;;;;;;;10.8;62.49512;95331.52;;;;
2022/01/03 00:03:57;;;;;;;3.35;2.4;;;;;;;10.8;62.49512;95331.52;;;;
2022/01/03 00:04:57;;;;;;;3.35;2.4;;;;;;;10.8;62.49512;95331.52;;;;
2022/01/03 00:05:58;;;;;;;3.35;2.4;;;;;;;10.8;62.49512;95331.52;;;;
2022/01/03 00:06:59;;;;;;;4;2.15;;;;;;;10.72;63.19141;95330.55;;;;
2022/01/03 00:08:00;;;;;;;4;2.15;;;;;;;10.72;63.19141;95330.55;;;;
2022/01/03 00:09:03;;;;;;;4;2.15;;;;;;;10.72;63.19141;95330.55;;;;
2022/01/03 00:10:03;;;;;;;4;2.15;;;;;;;10.72;63.19141;95330.55;;;;
2022/01/03 00:11:05;;;;;;;4;2.15;;;;;;;10.72;63.19141;95330.55;;;;
2022/01/03 00:12:06;;;;;;;4;2.15;;;;;;;10.72;63.19141;95330.55;;;;
2022/01/03 00:13:08;;;;;;;4;2.15;;;;;;;10.72;63.19141;95330.55;;;;
2022/01/03 00:14:08;;;;;;;4;2.15;;;;;;;10.72;63.19141;95330.55;;;;
2022/01/03 00:15:09;;;;;;;4;2.15;;;;;;;10.72;63.19141;95330.55;;;;
2022/01/03 00:16:12;;;;;;;4;2.15;;;;;;;10.72;63.19141;95330.55;;;;
2022/01/03 00:17:13;;;;;;;3.25;2.2;;;;;;;10.6;64.0127;95310.28;;;;
2022/01/03 00:18:13;;;;;;;3.25;2.2;;;;;;;10.6;64.0127;95310.28;;;;
2022/01/03 00:19:14;;;;;;;3.25;2.2;;;;;;;10.6;64.0127;95310.28;;;;
2022/01/03 00:20:14;;;;;;;3.25;2.2;;;;;;;10.6;64.0127;95310.28;;;;
2022/01/03 00:21:16;;;;;;;3.25;2.2;;;;;;;10.6;64.0127;95310.28;;;;
2022/01/03 00:22:18;;;;;;;3.25;2.2;;;;;;;10.6;64.0127;95310.28;;;;
2022/01/03 00:23:22;;;;;;;3.25;2.2;;;;;;;10.6;64.0127;95310.28;;;;
2022/01/03 00:24:25;;;;;;;3.25;2.2;;;;;;;10.6;64.0127;95310.28;;;;
2022/01/03 00:25:31;;;;;;;3.25;2.2;;;;;;;10.6;64.0127;95310.28;;;;
2022/01/03 00:26:36;;;;;;;3.25;2.2;;;;;;;10.6;64.0127;95310.28;;;;
2022/01/03 00:27:38;;;;;;;3.25;2.2;;;;;;;10.6;64.0127;95310.28;;;;
2022/01/03 00:28:42;;;;;;;2.65;2.1;;;;;;;10.63;64.88477;95278.89;;;;
2022/01/03 00:29:50;;;;;;;2.65;2.1;;;;;;;10.63;64.88477;95278.89;;;;
2022/01/03 00:30:52;;;;;;;2.65;2.1;;;;;;;10.63;64.88477;95278.89;;;;
2022/01/03 00:31:55;;;;;;;2.65;2.1;;;;;;;10.63;64.88477;95278.89;;;;
2022/01/03 00:32:56;;;;;;;2.65;2.1;;;;;;;10.63;64.88477;95278.89;;;;
2022/01/03 00:33:58;;;;;;;2.65;2.1;;;;;;;10.63;64.88477;95278.89;;;;
2022/01/03 00:35:01;;;;;;;2.65;2.1;;;;;;;10.63;64.88477;95278.89;;;;
2022/01/03 00:36:03;;;;;;;2.65;2.1;;;;;;;10.63;64.88477;95278.89;;;;
2022/01/03 00:37:04;;;;;;;2.65;2.1;;;;;;;10.63;64.88477;95278.89;;;;
2022/01/03 00:38:06;;;;;;;2.65;2.1;;;;;;;10.63;64.88477;95278.89;;;;
2022/01/03 00:39:07;;;;;;;2.65;2;;;;;;;10.63;65.61523;95277.4;;;;
2022/01/03 00:40:09;;;;;;;2.65;2;;;;;;;10.63;65.61523;95277.4;;;;
2022/01/03 00:41:11;;;;;;;2.65;2;;;;;;;10.63;65.61523;95277.4;;;;
2022/01/03 00:42:12;;;;;;;2.65;2;;;;;;;10.63;65.61523;95277.4;;;;
2022/01/03 00:43:14;;;;;;;2.65;2;;;;;;;10.63;65.61523;95277.4;;;;
2022/01/03 00:44:16;;;;;;;2.65;2;;;;;;;10.63;65.61523;95277.4;;;;
2022/01/03 00:45:17;;;;;;;2.65;2;;;;;;;10.63;65.61523;95277.4;;;;
2022/01/03 00:46:18;;;;;;;2.65;2;;;;;;;10.63;65.61523;95277.4;;;;
2022/01/03 00:47:19;;;;;;;2.65;2;;;;;;;10.63;65.61523;95277.4;;;;
2022/01/03 00:48:20;;;;;;;2.65;2;;;;;;;10.63;65.61523;95277.4;;;;
2022/01/03 00:49:22;;;;;;;3.15;2;;;;;;;10.59;66.44531;95297.97;;;;
2022/01/03 00:50:23;;;;;;;3.15;2;;;;;;;10.59;66.44531;95297.97;;;;
2022/01/03 00:51:24;;;;;;;3.15;2;;;;;;;10.59;66.44531;95297.97;;;;
2022/01/03 00:52:25;;;;;;;3.15;2;;;;;;;10.59;66.44531;95297.97;;;;
2022/01/03 00:53:26;;;;;;;3.15;2;;;;;;;10.59;66.44531;95297.97;;;;
2022/01/03 00:54:26;;;;;;;3.15;2;;;;;;;10.59;66.44531;95297.97;;;;
2022/01/03 00:55:27;;;;;;;3.15;2;;;;;;;10.59;66.44531;95297.97;;;;
2022/01/03 00:56:27;;;;;;;3.15;2;;;;;;;10.59;66.44531;95297.97;;;;
2022/01/03 00:57:32;;;;;;;3.15;2;;;;;;;10.59;66.44531;95297.97;;;;
2022/01/03 00:58:52;;;;;;;3.15;2;;;;;;;10.59;66.44531;95297.97;;;;
2022/01/03 00:59:56;;;;;;;3.05;1.95;;;;;;;10.63;67.04199;95305.76;;;;
2022/01/03 01:01:04;;;;;;;3.05;1.95;;;;;;;10.63;67.04199;95305.76;;;;
2022/01/03 01:02:05;;;;;;;3.05;1.95;;;;;;;10.63;67.04199;95305.76;;;;
2022/01/03 01:03:10;;;;;;;3.05;1.95;;;;;;;10.63;67.04199;95305.76;;;;
2022/01/03 01:04:12;;;;;;;3.05;1.95;;;;;;;10.63;67.04199;95305.76;;;;
2022/01/03 01:05:14;;;;;;;3.05;1.95;;;;;;;10.63;67.04199;95305.76;;;;
2022/01/03 01:06:15;;;;;;;3.05;1.95;;;;;;;10.63;67.04199;95305.76;;;;
2022/01/03 01:07:17;;;;;;;3.05;1.95;;;;;;;10.63;67.04199;95305.76;;;;
2022/01/03 01:08:19;;;;;;;3.05;1.95;;;;;;;10.63;67.04199;95305.76;;;;
2022/01/03 01:09:22;;;;;;;3.05;1.95;;;;;;;10.63;67.04199;95305.76;;;;
2022/01/03 01:10:25;;;;;;;3.2;2.15;;;;;;;10.57;67.50586;95305.89;;;;
2022/01/03 01:11:29;;;;;;;3.2;2.15;;;;;;;10.57;67.50586;95305.89;;;;
2022/01/03 01:12:30;;;;;;;3.2;2.15;;;;;;;10.57;67.50586;95305.89;;;;
2022/01/03 01:13:32;;;;;;;3.2;2.15;;;;;;;10.57;67.50586;95305.89;;;;
2022/01/03 01:14:34;;;;;;;3.2;2.15;;;;;;;10.57;67.50586;95305.89;;;;
2022/01/03 01:15:35;;;;;;;3.2;2.15;;;;;;;10.57;67.50586;95305.89;;;;
2022/01/03 01:16:36;;;;;;;3.2;2.15;;;;;;;10.57;67.50586;95305.89;;;;
2022/01/03 01:17:37;;;;;;;3.2;2.15;;;;;;;10.57;67.50586;95305.89;;;;
2022/01/03 01:18:37;;;;;;;3.2;2.15;;;;;;;10.57;67.50586;95305.89;;;;
2022/01/03 01:19:38;;;;;;;3.2;2.15;;;;;;;10.57;67.50586;95305.89;;;;
2022/01/03 01:20:39;;;;;;;3.2;2.15;;;;;;;10.57;67.50586;95305.89;;;;
2022/01/03 01:21:41;;;;;;;3.2;2.15;;;;;;;10.57;67.50586;95305.89;;;;
2022/01/03 01:22:41;;;;;;;3.2;2.15;;;;;;;10.57;67.50586;95305.89;;;;
2022/01/03 01:23:43;;;;;;;3.2;2.15;;;;;;;10.57;67.50586;95305.89;;;;
2022/01/03 01:24:49;;;;;;;3.2;2.15;;;;;;;10.57;67.50586;95305.89;;;;
2022/01/03 01:31:02;;;;;;;3.2;2.15;;;;;;;10.57;67.50586;95305.89;;;;
2022/01/03 01:32:02;;;;;;;3.15;2.2;;;;;;;10.27;69.19531;95265.91;;;;
2022/01/03 01:33:04;;;;;;;3.15;2.2;;;;;;;10.27;69.19531;95265.91;;;;
2022/01/03 01:34:07;;;;;;;3.15;2.2;;;;;;;10.27;69.19531;95265.91;;;;
2022/01/03 01:35:10;;;;;;;3.15;2.2;;;;;;;10.27;69.19531;95265.91;;;;
2022/01/03 01:36:10;;;;;;;3.15;2.2;;;;;;;10.27;69.19531;95265.91;;;;
2022/01/03 01:37:14;;;;;;;3.15;2.2;;;;;;;10.27;69.19531;95265.91;;;;
2022/01/03 01:38:18;;;;;;;3.15;2.2;;;;;;;10.27;69.19531;95265.91;;;;
2022/01/03 01:39:21;;;;;;;3.15;2.2;;;;;;;10.27;69.19531;95265.91;;;;
2022/01/03 01:40:24;;;;;;;3.15;2.2;;;;;;;10.27;69.19531;95265.91;;;;
2022/01/03 01:41:25;;;;;;;3.15;2.2;;;;;;;10.27;69.19531;95265.91;;;;
2022/01/03 01:42:28;;;;;;;3.8;2.05;;;;;;;10.21;69.94531;95285.76;;;;
2022/01/03 01:43:30;;;;;;;3.8;2.05;;;;;;;10.21;69.94531;95285.76;;;;
2022/01/03 01:44:36;;;;;;;3.8;2.05;;;;;;;10.21;69.94531;95285.76;;;;
2022/01/03 01:45:37;;;;;;;3.8;2.05;;;;;;;10.21;69.94531;95285.76;;;;
2022/01/03 01:46:41;;;;;;;3.8;2.05;;;;;;;10.21;69.94531;95285.76;;;;
2022/01/03 01:47:43;;;;;;;3.8;2.05;;;;;;;10.21;69.94531;95285.76;;;;
2022/01/03 01:48:48;;;;;;;3.8;2.05;;;;;;;10.21;69.94531;95285.76;;;;
2022/01/03 01:49:51;;;;;;;3.8;2.05;;;;;;;10.21;69.94531;95285.76;;;;
2022/01/03 01:50:55;;;;;;;3.8;2.05;;;;;;;10.21;69.94531;95285.76;;;;
2022/01/03 01:51:59;;;;;;;3.8;2.05;;;;;;;10.21;69.94531;95285.76;;;;
2022/01/03 01:53:01;;;;;;;3.8;2.05;;;;;;;10.21;69.94531;95285.76;;;;
2022/01/03 01:54:05;;;;;;;5.1;2;;;;;;;10.24;70.58008;95284.45;;;;
2022/01/03 01:55:06;;;;;;;5.1;2;;;;;;;10.24;70.58008;95284.45;;;;
2022/01/03 01:56:10;;;;;;;5.1;2;;;;;;;10.24;70.58008;95284.45;;;;
2022/01/03 01:57:16;;;;;;;5.1;2;;;;;;;10.24;70.58008;95284.45;;;;
2022/01/03 01:58:19;;;;;;;5.1;2;;;;;;;10.24;70.58008;95284.45;;;;
2022/01/03 01:59:31;;;;;;;5.1;2;;;;;;;10.24;70.58008;95284.45;;;;
2022/01/03 02:00:40;;;;;;;5.1;2;;;;;;;10.24;70.58008;95284.45;;;;
2022/01/03 02:01:44;;;;;;;5.1;2;;;;;;;10.24;70.58008;95284.45;;;;
2022/01/03 02:02:50;;;;;;;5.1;2;;;;;;;10.24;70.58008;95284.45;;;;
2022/01/03 02:04:05;;;;;;;4.7;2.1;;;;;;;10.28;71.08008;95291.97;;;;
2022/01/03 02:05:17;;;;;;;4.7;2.1;;;;;;;10.28;71.08008;95291.97;;;;
2022/01/03 02:06:21;;;;;;;4.7;2.1;;;;;;;10.28;71.08008;95291.97;;;;
2022/01/03 02:07:29;;;;;;;4.7;2.1;;;;;;;10.28;71.08008;95291.97;;;;
2022/01/03 02:08:53;;;;;;;4.7;2.1;;;;;;;10.28;71.08008;95291.97;;;;
2022/01/03 02:10:04;;;;;;;4.7;2.1;;;;;;;10.28;71.08008;95291.97;;;;
2022/01/03 02:11:08;;;;;;;4.7;2.1;;;;;;;10.28;71.08008;95291.97;;;;
2022/01/03 02:12:18;;;;;;;4.7;2.1;;;;;;;10.28;71.08008;95291.97;;;;
2022/01/03 02:13:24;;;;;;;4.7;2.1;;;;;;;10.28;71.08008;95291.97;;;;
2022/01/03 02:14:25;;;;;;;2.85;1.9;;;;;;;10.33;71.52637;95288.03;;;;
2022/01/03 02:15:27;;;;;;;2.85;1.9;;;;;;;10.33;71.52637;95288.03;;;;
2022/01/03 02:16:28;;;;;;;2.85;1.9;;;;;;;10.33;71.52637;95288.03;;;;
2022/01/03 02:17:31;;;;;;;2.85;1.9;;;;;;;10.33;71.52637;95288.03;;;;
2022/01/03 02:18:31;;;;;;;2.85;1.9;;;;;;;10.33;71.52637;95288.03;;;;
2022/01/03 02:19:32;;;;;;;2.85;1.9;;;;;;;10.33;71.52637;95288.03;;;;
2022/01/03 02:20:35;;;;;;;2.85;1.9;;;;;;;10.33;71.52637;95288.03;;;;
2022/01/03 02:21:35;;;;;;;2.85;1.9;;;;;;;10.33;71.52637;95288.03;;;;
2022/01/03 02:22:36;;;;;;;2.85;1.9;;;;;;;10.33;71.52637;95288.03;;;;
2022/01/03 02:23:38;;;;;;;2.85;1.9;;;;;;;10.33;71.52637;95288.03;;;;
2022/01/03 02:24:39;;;;;;;2.85;1.9;;;;;;;10.33;71.52637;95288.03;;;;
2022/01/03 02:25:40;;;;;;;3.95;1.8;;;;;;;10.32;71.80371;95280.07;;;;
2022/01/03 02:26:41;;;;;;;3.95;1.8;;;;;;;10.32;71.80371;95280.07;;;;
2022/01/03 02:27:41;;;;;;;3.95;1.8;;;;;;;10.32;71.80371;95280.07;;;;
2022/01/03 02:28:43;;;;;;;3.95;1.8;;;;;;;10.32;71.80371;95280.07;;;;
2022/01/03 02:29:44;;;;;;;3.95;1.8;;;;;;;10.32;71.80371;95280.07;;;;
2022/01/03 02:30:44;;;;;;;3.95;1.8;;;;;;;10.32;71.80371;95280.07;;;;
2022/01/03 02:31:45;;;;;;;3.95;1.8;;;;;;;10.32;71.80371;95280.07;;;;
2022/01/03 02:32:45;;;;;;;3.95;1.8;;;;;;;10.32;71.80371;95280.07;;;;
2022/01/03 02:33:46;;;;;;;3.95;1.8;;;;;;;10.32;71.80371;95280.07;;;;
2022/01/03 02:34:47;;;;;;;3.95;1.8;;;;;;;10.32;71.80371;95280.07;;;;
2022/01/03 02:35:47;;;;;;;4;1.65;;;;;;;10.3;72.08887;95257.48;;;;
2022/01/03 02:36:48;;;;;;;4;1.65;;;;;;;10.3;72.08887;95257.48;;;;
2022/01/03 02:37:50;;;;;;;4;1.65;;;;;;;10.3;72.08887;95257.48;;;;
2022/01/03 02:38:52;;;;;;;4;1.65;;;;;;;10.3;72.08887;95257.48;;;;
2022/01/03 02:39:52;;;;;;;4;1.65;;;;;;;10.3;72.08887;95257.48;;;;
2022/01/03 02:40:54;;;;;;;4;1.65;;;;;;;10.3;72.08887;95257.48;;;;
2022/01/03 02:41:54;;;;;;;4;1.65;;;;;;;10.3;72.08887;95257.48;;;;
2022/01/03 02:42:55;;;;;;;4;1.65;;;;;;;10.3;72.08887;95257.48;;;;
2022/01/03 02:43:55;;;;;;;4;1.65;;;;;;;10.3;72.08887;95257.48;;;;
2022/01/03 02:44:56;;;;;;;4;1.65;;;;;;;10.3;72.08887;95257.48;;;;
2022/01/03 02:45:59;;;;;;;4;1.65;;;;;;;10.3;72.08887;95257.48;;;;
2022/01/03 02:46:59;;;;;;;3.7;2.05;;;;;;;10.24;72.35645;95278.64;;;;
2022/01/03 02:48:00;;;;;;;3.7;2.05;;;;;;;10.24;72.35645;95278.64;;;;
2022/01/03 02:49:05;;;;;;;3.7;2.05;;;;;;;10.24;72.35645;95278.64;;;;
2022/01/03 02:50:06;;;;;;;3.7;2.05;;;;;;;10.24;72.35645;95278.64;;;;
2022/01/03 02:51:09;;;;;;;3.7;2.05;;;;;;;10.24;72.35645;95278.64;;;;
2022/01/03 02:52:10;;;;;;;3.7;2.05;;;;;;;10.24;72.35645;95278.64;;;;
2022/01/03 02:53:10;;;;;;;3.7;2.05;;;;;;;10.24;72.35645;95278.64;;;;
2022/01/03 02:54:11;;;;;;;3.7;2.05;;;;;;;10.24;72.35645;95278.64;;;;
2022/01/03 02:55:13;;;;;;;3.7;2.05;;;;;;;10.24;72.35645;95278.64;;;;
2022/01/03 02:56:16;;;;;;;3.7;2.05;;;;;;;10.24;72.35645;95278.64;;;;
2022/01/03 02:57:22;;;;;;;3.45;1.75;;;;;;;10.28;72.62109;95264.46;;;;
2022/01/03 02:58:23;;;;;;;3.45;1.75;;;;;;;10.28;72.62109;95264.46;;;;
2022/01/03 02:59:23;;;;;;;3.45;1.75;;;;;;;10.28;72.62109;95264.46;;;;
2022/01/03 03:00:24;;;;;;;3.45;1.75;;;;;;;10.28;72.62109;95264.46;;;;
2022/01/03 03:01:27;;;;;;;3.45;1.75;;;;;;;10.28;72.62109;95264.46;;;;
2022/01/03 03:02:28;;;;;;;3.45;1.75;;;;;;;10.28;72.62109;95264.46;;;;
2022/01/03 03:03:29;;;;;;;3.45;1.75;;;;;;;10.28;72.62109;95264.46;;;;
2022/01/03 03:04:29;;;;;;;3.45;1.75;;;;;;;10.28;72.62109;95264.46;;;;
2022/01/03 03:05:30;;;;;;;3.45;1.75;;;;;;;10.28;72.62109;95264.46;;;;
2022/01/03 03:06:30;;;;;;;3.45;1.75;;;;;;;10.28;72.62109;95264.46;;;;
2022/01/03 03:07:31;;;;;;;3.45;1.75;;;;;;;10.28;72.62109;95264.46;;;;
2022/01/03 03:08:32;;;;;;;3.9;2.1;;;;;;;10.39;72.68262;95287.94;;;;
2022/01/03 03:09:33;;;;;;;3.9;2.1;;;;;;;10.39;72.68262;95287.94;;;;
2022/01/03 03:10:33;;;;;;;3.9;2.1;;;;;;;10.39;72.68262;95287.94;;;;
2022/01/03 03:11:34;;;;;;;3.9;2.1;;;;;;;10.39;72.68262;95287.94;;;;
2022/01/03 03:12:37;;;;;;;3.9;2.1;;;;;;;10.39;72.68262;95287.94;;;;
2022/01/03 03:13:38;;;;;;;3.9;2.1;;;;;;;10.39;72.68262;95287.94;;;;
2022/01/03 03:14:39;;;;;;;3.9;2.1;;;;;;;10.39;72.68262;95287.94;;;;
2022/01/03 03:15:40;;;;;;;3.9;2.1;;;;;;;10.39;72.68262;95287.94;;;;
2022/01/03 03:16:42;;;;;;;3.9;2.1;;;;;;;10.39;72.68262;95287.94;;;;
2022/01/03 03:17:42;;;;;;;3.9;2.1;;;;;;;10.39;72.68262;95287.94;;;;
2022/01/03 03:18:44;;;;;;;3.4;1.7;;;;;;;10.5;72.74414;95291.55;;;;
2022/01/03 03:19:44;;;;;;;3.4;1.7;;;;;;;10.5;72.74414;95291.55;;;;
2022/01/03 03:20:50;;;;;;;3.4;1.7;;;;;;;10.5;72.74414;95291.55;;;;
2022/01/03 03:21:50;;;;;;;3.4;1.7;;;;;;;10.5;72.74414;95291.55;;;;
2022/01/03 03:22:51;;;;;;;3.4;1.7;;;;;;;10.5;72.74414;95291.55;;;;
2022/01/03 03:23:53;;;;;;;3.4;1.7;;;;;;;10.5;72.74414;95291.55;;;;
2022/01/03 03:24:53;;;;;;;3.4;1.7;;;;;;;10.5;72.74414;95291.55;;;;
2022/01/03 03:26:00;;;;;;;3.4;1.7;;;;;;;10.5;72.74414;95291.55;;;;
2022/01/03 03:27:01;;;;;;;3.4;1.7;;;;;;;10.5;72.74414;95291.55;;;;
2022/01/03 03:28:02;;;;;;;3.4;1.7;;;;;;;10.5;72.74414;95291.55;;;;
2022/01/03 03:29:06;;;;;;;3.4;2.05;;;;;;;10.41;73.01758;95300.26;;;;
2022/01/03 03:30:07;;;;;;;3.4;2.05;;;;;;;10.41;73.01758;95300.26;;;;
2022/01/03 03:31:09;;;;;;;3.4;2.05;;;;;;;10.41;73.01758;95300.26;;;;
2022/01/03 03:32:10;;;;;;;3.4;2.05;;;;;;;10.41;73.01758;95300.26;;;;
2022/01/03 03:33:11;;;;;;;3.4;2.05;;;;;;;10.41;73.01758;95300.26;;;;
2022/01/03 03:34:15;;;;;;;3.4;2.05;;;;;;;10.41;73.01758;95300.26;;;;
2022/01/03 03:35:15;;;;;;;3.4;2.05;;;;;;;10.41;73.01758;95300.26;;;;
2022/01/03 03:36:17;;;;;;;3.4;2.05;;;;;;;10.41;73.01758;95300.26;;;;
2022/01/03 03:37:17;;;;;;;3.4;2.05;;;;;;;10.41;73.01758;95300.26;;;;
2022/01/03 03:38:18;;;;;;;3.4;2.05;;;;;;;10.41;73.01758;95300.26;;;;
2022/01/03 03:39:19;;;;;;;3.4;2.05;;;;;;;10.41;73.01758;95300.26;;;;
2022/01/03 03:40:20;;;;;;;3.8;2;;;;;;;10.34;73.42383;95281.08;;;;
2022/01/03 03:41:20;;;;;;;3.8;2;;;;;;;10.34;73.42383;95281.08;;;;
2022/01/03 03:42:21;;;;;;;3.8;2;;;;;;;10.34;73.42383;95281.08;;;;
2022/01/03 03:43:21;;;;;;;3.8;2;;;;;;;10.34;73.42383;95281.08;;;;
2022/01/03 03:44:22;;;;;;;3.8;2;;;;;;;10.34;73.42383;95281.08;;;;
2022/01/03 03:45:23;;;;;;;3.8;2;;;;;;;10.34;73.42383;95281.08;;;;
2022/01/03 03:46:25;;;;;;;3.8;2;;;;;;;10.34;73.42383;95281.08;;;;
2022/01/03 03:47:25;;;;;;;3.8;2;;;;;;;10.34;73.42383;95281.08;;;;
2022/01/03 03:48:26;;;;;;;3.8;2;;;;;;;10.34;73.42383;95281.08;;;;
2022/01/03 03:49:26;;;;;;;3.8;2;;;;;;;10.34;73.42383;95281.08;;;;
2022/01/03 03:50:27;;;;;;;3.8;1.75;;;;;;;10.34;73.70215;95290.52;;;;
2022/01/03 03:51:29;;;;;;;3.8;1.75;;;;;;;10.34;73.70215;95290.52;;;;
2022/01/03 03:52:30;;;;;;;3.8;1.75;;;;;;;10.34;73.70215;95290.52;;;;
2022/01/03 03:53:30;;;;;;;3.8;1.75;;;;;;;10.34;73.70215;95290.52;;;;
2022/01/03 03:54:31;;;;;;;3.8;1.75;;;;;;;10.34;73.70215;95290.52;;;;
2022/01/03 03:55:33;;;;;;;3.8;1.75;;;;;;;10.34;73.70215;95290.52;;;;
2022/01/03 03:56:34;;;;;;;3.8;1.75;;;;;;;10.34;73.70215;95290.52;;;;
2022/01/03 03:57:35;;;;;;;3.8;1.75;;;;;;;10.34;73.70215;95290.52;;;;
2022/01/03 03:58:35;;;;;;;3.8;1.75;;;;;;;10.34;73.70215;95290.52;;;;
2022/01/03 03:59:36;;;;;;;3.8;1.75;;;;;;;10.34;73.70215;95290.52;;;;
2022/01/03 04:00:36;;;;;;;3.8;1.75;;;;;;;10.34;73.70215;95290.52;;;;
2022/01/03 04:01:37;;;;;;;2.6;1.5;;;;;;;10.32;73.84863;95305.19;;;;
2022/01/03 04:02:38;;;;;;;2.6;1.5;;;;;;;10.32;73.84863;95305.19;;;;
2022/01/03 04:03:39;;;;;;;2.6;1.5;;;;;;;10.32;73.84863;95305.19;;;;
2022/01/03 04:04:39;;;;;;;2.6;1.5;;;;;;;10.32;73.84863;95305.19;;;;
2022/01/03 04:05:40;;;;;;;2.6;1.5;;;;;;;10.32;73.84863;95305.19;;;;
2022/01/03 04:06:40;;;;;;;2.6;1.5;;;;;;;10.32;73.84863;95305.19;;;;
2022/01/03 04:07:41;;;;;;;2.6;1.5;;;;;;;10.32;73.84863;95305.19;;;;
2022/01/03 04:08:42;;;;;;;2.6;1.5;;;;;;;10.32;73.84863;95305.19;;;;
2022/01/03 04:09:42;;;;;;;2.6;1.5;;;;;;;10.32;73.84863;95305.19;;;;
2022/01/03 04:10:43;;;;;;;2.6;1.5;;;;;;;10.32;73.84863;95305.19;;;;
2022/01/03 04:11:43;;;;;;;2.6;1.5;;;;;;;10.32;73.84863;95305.19;;;;
2022/01/03 04:12:44;;;;;;;3.35;1.6;;;;;;;10.28;74.05469;95322.06;;;;
2022/01/03 04:13:45;;;;;;;3.35;1.6;;;;;;;10.28;74.05469;95322.06;;;;
2022/01/03 04:14:45;;;;;;;3.35;1.6;;;;;;;10.28;74.05469;95322.06;;;;
2022/01/03 04:15:47;;;;;;;3.35;1.6;;;;;;;10.28;74.05469;95322.06;;;;
2022/01/03 04:16:47;;;;;;;3.35;1.6;;;;;;;10.28;74.05469;95322.06;;;;
2022/01/03 04:17:47;;;;;;;3.35;1.6;;;;;;;10.28;74.05469;95322.06;;;;
2022/01/03 04:18:48;;;;;;;3.35;1.6;;;;;;;10.28;74.05469;95322.06;;;;
2022/01/03 04:19:49;;;;;;;3.35;1.6;;;;;;;10.28;74.05469;95322.06;;;;
2022/01/03 04:20:49;;;;;;;3.35;1.6;;;;;;;10.28;74.05469;95322.06;;;;
2022/01/03 04:21:50;;;;;;;3.35;1.6;;;;;;;10.28;74.05469;95322.06;;;;
2022/01/03 04:22:51;;;;;;;3.25;1.6;;;;;;;10.25;74.33789;95307.7;;;;
2022/01/03 04:23:51;;;;;;;3.25;1.6;;;;;;;10.25;74.33789;95307.7;;;;
2022/01/03 04:24:52;;;;;;;3.25;1.6;;;;;;;10.25;74.33789;95307.7;;;;
2022/01/03 04:25:53;;;;;;;3.25;1.6;;;;;;;10.25;74.33789;95307.7;;;;
2022/01/03 04:26:53;;;;;;;3.25;1.6;;;;;;;10.25;74.33789;95307.7;;;;
2022/01/03 04:27:54;;;;;;;3.25;1.6;;;;;;;10.25;74.33789;95307.7;;;;
2022/01/03 04:28:54;;;;;;;3.25;1.6;;;;;;;10.25;74.33789;95307.7;;;;
2022/01/03 04:29:55;;;;;;;3.25;1.6;;;;;;;10.25;74.33789;95307.7;;;;
2022/01/03 04:30:55;;;;;;;3.25;1.6;;;;;;;10.25;74.33789;95307.7;;;;
2022/01/03 04:31:56;;;;;;;3.25;1.6;;;;;;;10.25;74.33789;95307.7;;;;
2022/01/03 04:32:57;;;;;;;3.25;1.6;;;;;;;10.25;74.33789;95307.7;;;;
2022/01/03 04:33:58;;;;;;;6.249999;1.9;;;;;;;10.33;74.37207;95310.97;;;;
2022/01/03 04:34:59;;;;;;;6.249999;1.9;;;;;;;10.33;74.37207;95310.97;;;;
2022/01/03 04:35:59;;;;;;;6.249999;1.9;;;;;;;10.33;74.37207;95310.97;;;;
2022/01/03 04:37:00;;;;;;;6.249999;1.9;;;;;;;10.33;74.37207;95310.97;;;;
2022/01/03 04:38:01;;;;;;;6.249999;1.9;;;;;;;10.33;74.37207;95310.97;;;;
2022/01/03 04:39:01;;;;;;;6.249999;1.9;;;;;;;10.33;74.37207;95310.97;;;;
2022/01/03 04:40:02;;;;;;;6.249999;1.9;;;;;;;10.33;74.37207;95310.97;;;;
2022/01/03 04:41:04;;;;;;;6.249999;1.9;;;;;;;10.33;74.37207;95310.97;;;;
2022/01/03 04:42:06;;;;;;;6.249999;1.9;;;;;;;10.33;74.37207;95310.97;;;;
2022/01/03 04:43:06;;;;;;;6.249999;1.9;;;;;;;10.33;74.37207;95310.97;;;;
2022/01/03 04:44:07;;;;;;;5.8;1.85;;;;;;;10.35;74.37695;95319.56;;;;
2022/01/03 04:45:07;;;;;;;5.8;1.85;;;;;;;10.35;74.37695;95319.56;;;;
2022/01/03 04:46:08;;;;;;;5.8;1.85;;;;;;;10.35;74.37695;95319.56;;;;
2022/01/03 04:47:09;;;;;;;5.8;1.85;;;;;;;10.35;74.37695;95319.56;;;;
2022/01/03 04:48:10;;;;;;;5.8;1.85;;;;;;;10.35;74.37695;95319.56;;;;
2022/01/03 04:49:10;;;;;;;5.8;1.85;;;;;;;10.35;74.37695;95319.56;;;;
2022/01/03 04:50:11;;;;;;;5.8;1.85;;;;;;;10.35;74.37695;95319.56;;;;
2022/01/03 04:51:12;;;;;;;5.8;1.85;;;;;;;10.35;74.37695;95319.56;;;;
2022/01/03 04:52:13;;;;;;;5.8;1.85;;;;;;;10.35;74.37695;95319.56;;;;
2022/01/03 04:53:13;;;;;;;5.8;1.85;;;;;;;10.35;74.37695;95319.56;;;;
2022/01/03 04:54:14;;;;;;;5.8;1.85;;;;;;;10.35;74.37695;95319.56;;;;
2022/01/03 04:55:15;;;;;;;3.85;1.6;;;;;;;10.36;74.48535;95319.42;;;;
2022/01/03 04:56:15;;;;;;;3.85;1.6;;;;;;;10.36;74.48535;95319.42;;;;
2022/01/03 04:57:17;;;;;;;3.85;1.6;;;;;;;10.36;74.48535;95319.42;;;;
2022/01/03 04:58:18;;;;;;;3.85;1.6;;;;;;;10.36;74.48535;95319.42;;;;
2022/01/03 04:59:18;;;;;;;3.85;1.6;;;;;;;10.36;74.48535;95319.42;;;;
2022/01/03 05:00:19;;;;;;;3.85;1.6;;;;;;;10.36;74.48535;95319.42;;;;
2022/01/03 05:01:19;;;;;;;3.85;1.6;;;;;;;10.36;74.48535;95319.42;;;;
2022/01/03 05:02:20;;;;;;;3.85;1.6;;;;;;;10.36;74.48535;95319.42;;;;
2022/01/03 05:03:21;;;;;;;3.85;1.6;;;;;;;10.36;74.48535;95319.42;;;;
2022/01/03 05:04:21;;;;;;;3.85;1.6;;;;;;;10.36;74.48535;95319.42;;;;
2022/01/03 05:05:22;;;;;;;2.8;1.7;;;;;;;10.33;74.59668;95296.55;;;;
2022/01/03 05:06:22;;;;;;;2.8;1.7;;;;;;;10.33;74.59668;95296.55;;;;
2022/01/03 05:07:23;;;;;;;2.8;1.7;;;;;;;10.33;74.59668;95296.55;;;;
2022/01/03 05:08:24;;;;;;;2.8;1.7;;;;;;;10.33;74.59668;95296.55;;;;
2022/01/03 05:09:24;;;;;;;2.8;1.7;;;;;;;10.33;74.59668;95296.55;;;;
2022/01/03 05:10:24;;;;;;;2.8;1.7;;;;;;;10.33;74.59668;95296.55;;;;
2022/01/03 05:11:25;;;;;;;2.8;1.7;;;;;;;10.33;74.59668;95296.55;;;;
2022/01/03 05:12:25;;;;;;;2.8;1.7;;;;;;;10.33;74.59668;95296.55;;;;
2022/01/03 05:13:26;;;;;;;2.8;1.7;;;;;;;10.33;74.59668;95296.55;;;;
2022/01/03 05:14:26;;;;;;;2.8;1.7;;;;;;;10.33;74.59668;95296.55;;;;
2022/01/03 05:15:27;;;;;;;2.8;1.7;;;;;;;10.33;74.59668;95296.55;;;;
2022/01/03 05:16:27;;;;;;;5.2;1.8;;;;;;;10.31;74.74512;95315.67;;;;
2022/01/03 05:17:29;;;;;;;5.2;1.8;;;;;;;10.31;74.74512;95315.67;;;;
2022/01/03 05:18:29;;;;;;;5.2;1.8;;;;;;;10.31;74.74512;95315.67;;;;
2022/01/03 05:19:30;;;;;;;5.2;1.8;;;;;;;10.31;74.74512;95315.67;;;;
2022/01/03 05:20:30;;;;;;;5.2;1.8;;;;;;;10.31;74.74512;95315.67;;;;
2022/01/03 05:21:31;;;;;;;5.2;1.8;;;;;;;10.31;74.74512;95315.67;;;;
2022/01/03 05:22:31;;;;;;;5.2;1.8;;;;;;;10.31;74.74512;95315.67;;;;
2022/01/03 05:23:32;;;;;;;5.2;1.8;;;;;;;10.31;74.74512;95315.67;;;;
2022/01/03 05:24:34;;;;;;;5.2;1.8;;;;;;;10.31;74.74512;95315.67;;;;
2022/01/03 05:25:34;;;;;;;5.2;1.8;;;;;;;10.31;74.74512;95315.67;;;;
2022/01/03 05:26:35;;;;;;;5.85;1.85;;;;;;;10.29;74.88965;95306.57;;;;
2022/01/03 05:27:37;;;;;;;5.85;1.85;;;;;;;10.29;74.88965;95306.57;;;;
2022/01/03 05:28:37;;;;;;;5.85;1.85;;;;;;;10.29;74.88965;95306.57;;;;
2022/01/03 05:29:38;;;;;;;5.85;1.85;;;;;;;10.29;74.88965;95306.57;;;;
2022/01/03 05:30:38;;;;;;;5.85;1.85;;;;;;;10.29;74.88965;95306.57;;;;
2022/01/03 05:31:39;;;;;;;5.85;1.85;;;;;;;10.29;74.88965;95306.57;;;;
2022/01/03 05:32:40;;;;;;;5.85;1.85;;;;;;;10.29;74.88965;95306.57;;;;
2022/01/03 05:33:40;;;;;;;5.85;1.85;;;;;;;10.29;74.88965;95306.57;;;;
2022/01/03 05:34:41;;;;;;;5.85;1.85;;;;;;;10.29;74.88965;95306.57;;;;
2022/01/03 05:35:41;;;;;;;5.85;1.85;;;;;;;10.29;74.88965;95306.57;;;;
2022/01/03 05:36:42;;;;;;;5.85;1.85;;;;;;;10.29;74.88965;95306.57;;;;
2022/01/03 05:37:43;;;;;;;3.9;1.7;;;;;;;10.28;74.94141;95318.84;;;;
2022/01/03 05:38:43;;;;;;;3.9;1.7;;;;;;;10.28;74.94141;95318.84;;;;
2022/01/03 05:39:43;;;;;;;3.9;1.7;;;;;;;10.28;74.94141;95318.84;;;;
2022/01/03 05:40:44;;;;;;;3.9;1.7;;;;;;;10.28;74.94141;95318.84;;;;
2022/01/03 05:41:45;;;;;;;3.9;1.7;;;;;;;10.28;74.94141;95318.84;;;;
2022/01/03 05:42:46;;;;;;;3.9;1.7;;;;;;;10.28;74.94141;95318.84;;;;
2022/01/03 05:43:47;;;;;;;3.9;1.7;;;;;;;10.28;74.94141;95318.84;;;;
2022/01/03 05:44:48;;;;;;;3.9;1.7;;;;;;;10.28;74.94141;95318.84;;;;
2022/01/03 05:45:48;;;;;;;3.9;1.7;;;;;;;10.28;74.94141;95318.84;;;;
2022/01/03 05:46:49;;;;;;;3.9;1.7;;;;;;;10.28;74.94141;95318.84;;;;
2022/01/03 05:47:49;;;;;;;4.900001;1.85;;;;;;;10.19;75.0752;95320.34;;;;
2022/01/03 05:48:50;;;;;;;4.900001;1.85;;;;;;;10.19;75.0752;95320.34;;;;
2022/01/03 05:49:52;;;;;;;4.900001;1.85;;;;;;;10.19;75.0752;95320.34;;;;
2022/01/03 05:50:53;;;;;;;4.900001;1.85;;;;;;;10.19;75.0752;95320.34;;;;
2022/01/03 05:51:53;;;;;;;4.900001;1.85;;;;;;;10.19;75.0752;95320.34;;;;
2022/01/03 05:52:54;;;;;;;4.900001;1.85;;;;;;;10.19;75.0752;95320.34;;;;
2022/01/03 05:53:55;;;;;;;4.900001;1.85;;;;;;;10.19;75.0752;95320.34;;;;
2022/01/03 05:54:56;;;;;;;4.900001;1.85;;;;;;;10.19;75.0752;95320.34;;;;
2022/01/03 05:55:56;;;;;;;4.900001;1.85;;;;;;;10.19;75.0752;95320.34;;;;
2022/01/03 05:56:57;;;;;;;4.900001;1.85;;;;;;;10.19;75.0752;95320.34;;;;
2022/01/03 05:57:58;;;;;;;4.900001;1.85;;;;;;;10.19;75.0752;95320.34;;;;
2022/01/03 05:58:58;;;;;;;4.900001;1.65;;;;;;;10.15;75.33594;95329.44;;;;
2022/01/03 05:59:59;;;;;;;4.900001;1.65;;;;;;;10.15;75.33594;95329.44;;;;
2022/01/03 06:01:00;;;;;;;4.900001;1.65;;;;;;;10.15;75.33594;95329.44;;;;